Time;durP1;ratioP1;P1;durP2;ratioP2;P2;SDS_P1;SDS_P2;PMS_P1;PMS_P2;Temp;Humidity;BMP_temperature;BMP_pressure;BME280_temperature;BME280_humidity;BME280_pressure;Samples;Min_cycle;Max_cycle;Signal;HPM_P1;HPM_P2
2023/07/26 00:00:13;;;;;;;3.35;1.90;;;15.10;90.90;;;;;;5006936;28;87235;-77
2023/07/26 00:02:39;;;;;;;3.55;1.77;;;15.00;90.90;;;;;;5004957;28;88823;-77
2023/07/26 00:05:04;;;;;;;5.63;1.70;;;15.10;90.90;;;;;;5006968;28;87792;-77
2023/07/26 00:07:30;;;;;;;2.50;1.80;;;15.10;91.20;;;;;;5005734;28;90656;-77
2023/07/26 00:09:56;;;;;;;3.35;1.83;;;15.10;91.20;;;;;;5007548;28;88351;-76
2023/07/26 00:12:21;;;;;;;4.93;1.92;;;15.10;90.80;;;;;;5008084;28;87757;-77
2023/07/26 00:14:47;;;;;;;2.90;1.73;;;15.10;90.80;;;;;;5006944;28;87557;-77
2023/07/26 00:17:12;;;;;;;3.22;1.70;;;15.10;91.20;;;;;;4989331;28;91971;-77
2023/07/26 00:19:38;;;;;;;2.92;1.63;;;15.10;90.90;;;;;;4988179;28;90482;-77
2023/07/26 00:22:04;;;;;;;2.75;1.60;;;15.10;91.00;;;;;;5006096;28;87827;-77
2023/07/26 00:24:29;;;;;;;4.18;2.08;;;15.10;91.20;;;;;;5005222;28;87486;-77
2023/07/26 00:26:55;;;;;;;4.00;1.80;;;15.10;91.10;;;;;;5006056;28;94065;-77
2023/07/26 00:29:20;;;;;;;6.05;1.85;;;15.10;91.10;;;;;;5007243;28;89209;-77
2023/07/26 00:31:46;;;;;;;5.18;1.85;;;15.00;91.10;;;;;;5008011;28;87532;-76
2023/07/26 00:34:12;;;;;;;4.13;1.95;;;15.00;91.00;;;;;;5006781;28;88105;-77
2023/07/26 00:36:37;;;;;;;3.67;2.10;;;15.00;91.10;;;;;;5006788;28;89203;-76
2023/07/26 00:39:03;;;;;;;7.53;1.80;;;15.00;91.20;;;;;;5007796;28;88756;-77
2023/07/26 00:41:29;;;;;;;5.05;2.22;;;14.90;91.20;;;;;;5006929;28;87641;-76
2023/07/26 00:43:54;;;;;;;3.38;1.88;;;14.90;91.20;;;;;;5007451;28;87237;-76
2023/07/26 00:46:20;;;;;;;2.83;1.85;;;14.90;91.30;;;;;;5006588;28;88368;-77
2023/07/26 00:48:46;;;;;;;6.45;2.05;;;14.90;91.40;;;;;;5005849;28;88396;-77
2023/07/26 00:51:12;;;;;;;4.22;2.25;;;14.80;91.30;;;;;;5005880;28;88622;-77
2023/07/26 00:53:38;;;;;;;4.40;1.98;;;14.80;91.30;;;;;;5005969;28;87622;-77
2023/07/26 00:56:04;;;;;;;8.13;2.22;;;14.70;91.10;;;;;;5006541;28;88988;-77
2023/07/26 00:58:30;;;;;;;5.28;2.20;;;14.70;91.30;;;;;;4987628;28;91213;-77
2023/07/26 01:00:56;;;;;;;3.38;2.03;;;14.70;91.30;;;;;;5006752;28;87432;-77
2023/07/26 01:03:21;;;;;;;6.65;1.85;;;14.60;91.40;;;;;;5005857;28;87637;-77
2023/07/26 01:06:06;;;;;;;4.80;2.08;;;14.60;91.40;;;;;;5007481;28;88601;-77
2023/07/26 01:09:00;;;;;;;5.85;2.47;;;14.60;91.20;;;;;;5005679;28;90658;-77
2023/07/26 01:11:39;;;;;;;4.38;2.28;;;14.50;91.30;;;;;;5006776;28;87918;-77
2023/07/26 01:14:15;;;;;;;3.88;2.00;;;14.40;91.40;;;;;;5003304;28;88659;-77
2023/07/26 01:16:42;;;;;;;4.07;1.85;;;14.40;91.60;;;;;;4999083;28;88707;-77
2023/07/26 01:19:07;;;;;;;3.47;1.92;;;14.40;91.80;;;;;;4998488;28;88513;-77
2023/07/26 01:21:33;;;;;;;3.45;2.08;;;14.40;91.80;;;;;;4999019;28;87562;-77
2023/07/26 01:23:59;;;;;;;6.43;2.38;;;14.40;91.80;;;;;;4999869;28;87725;-77
2023/07/26 01:26:25;;;;;;;6.88;2.28;;;14.40;91.90;;;;;;4999328;28;88800;-77
2023/07/26 01:28:50;;;;;;;4.55;2.47;;;14.30;91.80;;;;;;5003504;28;87831;-77
2023/07/26 01:31:18;;;;;;;4.63;2.15;;;14.30;91.80;;;;;;5004885;28;87346;-77
2023/07/26 01:33:48;;;;;;;5.18;2.20;;;14.40;91.80;;;;;;5003756;28;87408;-77
2023/07/26 01:36:14;;;;;;;3.15;2.00;;;14.30;91.40;;;;;;5005903;28;87770;-77
2023/07/26 01:38:41;;;;;;;6.07;2.38;;;14.30;91.50;;;;;;5003449;28;89052;-77
2023/07/26 01:41:07;;;;;;;3.58;2.20;;;14.30;91.70;;;;;;5003449;28;88558;-77
2023/07/26 01:43:33;;;;;;;5.40;2.05;;;14.30;91.80;;;;;;5003489;28;87427;-77
2023/07/26 01:45:59;;;;;;;4.80;1.98;;;14.30;92.00;;;;;;5005091;28;88572;-77
2023/07/26 01:48:24;;;;;;;3.92;1.92;;;14.30;92.00;;;;;;5006136;28;88048;-77
2023/07/26 01:50:50;;;;;;;3.80;2.38;;;14.30;91.90;;;;;;4986908;28;87344;-77
2023/07/26 01:53:15;;;;;;;5.45;2.20;;;14.20;92.00;;;;;;5002414;28;87770;-78
2023/07/26 01:55:41;;;;;;;3.28;1.95;;;14.20;92.00;;;;;;5004077;28;88758;-76
2023/07/26 01:58:07;;;;;;;10.07;2.20;;;14.20;92.10;;;;;;4985706;28;89693;-76
2023/07/26 02:00:32;;;;;;;7.38;2.15;;;14.20;92.20;;;;;;4985896;28;87695;-77
2023/07/26 02:02:58;;;;;;;6.72;2.00;;;14.20;92.10;;;;;;4985888;28;90615;-76
2023/07/26 02:05:24;;;;;;;5.35;2.50;;;14.10;92.30;;;;;;5000615;28;90031;-77
2023/07/26 02:07:50;;;;;;;7.90;2.47;;;14.10;92.20;;;;;;4994867;28;92053;-77
2023/07/26 02:10:15;;;;;;;4.55;2.25;;;14.10;92.30;;;;;;5006125;28;87742;-76
2023/07/26 02:12:41;;;;;;;8.30;2.30;;;14.00;92.10;;;;;;5006131;28;87865;-76
2023/07/26 02:15:07;;;;;;;6.68;2.67;;;14.00;92.10;;;;;;5004903;28;88856;-77
2023/07/26 02:17:32;;;;;;;4.85;2.78;;;14.00;92.10;;;;;;5002689;28;89864;-77
2023/07/26 02:19:58;;;;;;;6.85;2.67;;;14.00;92.20;;;;;;4984218;28;88235;-77
2023/07/26 02:22:23;;;;;;;4.07;2.35;;;14.00;92.10;;;;;;5004023;28;87429;-77
2023/07/26 02:24:49;;;;;;;5.30;2.28;;;13.90;92.10;;;;;;5002538;28;89036;-76
2023/07/26 02:27:14;;;;;;;4.05;2.45;;;13.90;92.20;;;;;;5003915;28;88388;-76
2023/07/26 02:29:40;;;;;;;7.38;3.10;;;13.90;92.10;;;;;;5004115;28;88723;-77
2023/07/26 02:32:06;;;;;;;7.50;2.38;;;13.90;92.30;;;;;;5002984;28;87833;-76
2023/07/26 02:34:32;;;;;;;5.18;2.17;;;13.90;92.40;;;;;;5003186;28;88370;-76
2023/07/26 02:36:57;;;;;;;4.03;2.65;;;13.90;92.40;;;;;;4984846;28;88176;-76
2023/07/26 02:39:23;;;;;;;5.50;2.42;;;13.90;92.50;;;;;;5006407;28;87330;-77
2023/07/26 02:41:48;;;;;;;6.18;2.53;;;13.80;92.60;;;;;;5004300;28;87514;-77
2023/07/26 02:44:14;;;;;;;6.28;2.80;;;13.90;92.70;;;;;;5002943;28;88954;-77
2023/07/26 02:46:39;;;;;;;6.20;2.83;;;13.80;92.70;;;;;;5003716;28;88795;-77
2023/07/26 02:49:05;;;;;;;4.88;2.63;;;13.80;92.80;;;;;;5002585;28;87697;-77
2023/07/26 02:51:31;;;;;;;7.22;2.80;;;13.80;92.80;;;;;;5003202;28;87573;-77
2023/07/26 02:53:56;;;;;;;4.35;2.53;;;13.80;92.90;;;;;;4986924;28;91684;-77
2023/07/26 02:56:22;;;;;;;5.78;2.80;;;13.80;93.00;;;;;;5003186;28;89285;-77
2023/07/26 02:58:47;;;;;;;10.80;3.58;;;13.80;93.00;;;;;;5004003;28;87778;-77
2023/07/26 03:01:13;;;;;;;5.13;2.97;;;13.80;93.20;;;;;;4986010;28;89941;-77
2023/07/26 03:03:38;;;;;;;4.43;3.10;;;13.80;93.30;;;;;;4992186;28;91306;-77
2023/07/26 03:06:04;;;;;;;9.18;3.22;;;13.80;93.30;;;;;;5004852;28;88652;-77
2023/07/26 03:08:30;;;;;;;6.95;3.20;;;13.80;93.40;;;;;;5005164;28;87610;-77
2023/07/26 03:10:55;;;;;;;4.95;2.95;;;13.80;93.40;;;;;;4984473;28;89132;-76
2023/07/26 03:13:21;;;;;;;9.23;3.22;;;13.80;93.40;;;;;;5004954;28;89076;-77
2023/07/26 03:15:48;;;;;;;7.53;3.17;;;13.80;93.60;;;;;;5003709;28;89030;-76
2023/07/26 03:18:14;;;;;;;7.03;3.30;;;13.80;93.70;;;;;;5004048;28;88675;-77
2023/07/26 03:20:44;;;;;;;6.10;3.63;;;13.90;93.80;;;;;;5003769;28;87437;-77
2023/07/26 03:23:09;;;;;;;9.38;3.80;;;13.80;93.90;;;;;;4983652;28;91527;-76
2023/07/26 03:25:35;;;;;;;8.98;4.63;;;13.80;94.00;;;;;;5000415;28;89881;-76
2023/07/26 03:28:03;;;;;;;7.05;4.25;;;13.80;94.10;;;;;;5004178;28;88075;-77
2023/07/26 03:30:28;;;;;;;8.35;4.07;;;13.80;94.10;;;;;;5003244;28;87619;-77
2023/07/26 03:32:54;;;;;;;8.23;4.07;;;13.80;94.20;;;;;;5004565;28;88691;-76
2023/07/26 03:35:19;;;;;;;8.57;4.03;;;13.80;94.30;;;;;;5002311;28;87944;-77
2023/07/26 03:37:45;;;;;;;6.80;4.70;;;13.90;94.40;;;;;;5004193;28;87785;-77
2023/07/26 03:40:11;;;;;;;14.85;5.65;;;13.90;94.50;;;;;;4984559;28;90482;-77
2023/07/26 03:42:37;;;;;;;7.72;4.53;;;13.90;94.60;;;;;;5002980;28;89724;-77
2023/07/26 03:45:03;;;;;;;11.02;5.03;;;13.90;94.80;;;;;;5005016;28;89273;-77
2023/07/26 03:47:28;;;;;;;10.77;4.65;;;13.90;94.70;;;;;;5004067;28;87905;-77
2023/07/26 03:49:54;;;;;;;9.50;4.80;;;13.90;94.60;;;;;;5004107;28;87471;-77
2023/07/26 03:52:19;;;;;;;10.23;4.97;;;13.90;94.70;;;;;;5003053;28;88214;-77
2023/07/26 03:54:45;;;;;;;11.88;5.18;;;13.90;94.80;;;;;;5001910;28;89079;-77
2023/07/26 03:57:10;;;;;;;8.60;5.18;;;13.90;94.70;;;;;;4988541;28;87583;-77
2023/07/26 03:59:36;;;;;;;7.40;4.68;;;13.90;94.80;;;;;;5009360;28;87097;-77
2023/07/26 04:02:02;;;;;;;9.88;5.45;;;13.90;94.80;;;;;;5008017;28;87670;-77
2023/07/26 04:04:27;;;;;;;11.38;5.60;;;13.90;95.00;;;;;;5005768;28;88458;-77
2023/07/26 04:06:53;;;;;;;9.75;4.88;;;13.90;94.90;;;;;;5003777;28;89099;-77
2023/07/26 04:09:19;;;;;;;8.80;5.03;;;14.00;95.10;;;;;;5006721;28;87888;-77
2023/07/26 04:11:44;;;;;;;9.75;5.30;;;14.00;95.10;;;;;;5007203;28;89072;-77
2023/07/26 04:14:10;;;;;;;9.52;5.57;;;14.00;95.10;;;;;;5005058;28;88409;-77
2023/07/26 04:16:36;;;;;;;10.00;5.93;;;14.00;95.30;;;;;;5006538;28;87418;-77
2023/07/26 04:19:01;;;;;;;10.38;4.82;;;14.00;95.30;;;;;;5005799;28;87741;-77
2023/07/26 04:21:27;;;;;;;12.80;5.75;;;14.10;95.20;;;;;;5007940;28;88256;-77
2023/07/26 04:23:52;;;;;;;12.55;5.40;;;14.10;95.40;;;;;;5005702;28;89042;-77
2023/07/26 04:26:19;;;;;;;14.38;5.78;;;14.10;95.40;;;;;;5005377;28;87684;-77
2023/07/26 04:28:44;;;;;;;12.90;5.00;;;14.10;95.40;;;;;;5005730;28;88029;-76
2023/07/26 04:31:10;;;;;;;12.75;5.13;;;14.10;95.40;;;;;;5006534;28;89286;-77
2023/07/26 04:33:36;;;;;;;9.15;5.20;;;14.10;95.40;;;;;;5005552;28;89789;-77
2023/07/26 04:36:01;;;;;;;10.18;5.38;;;14.10;95.40;;;;;;5004812;28;87238;-77
2023/07/26 04:38:27;;;;;;;9.52;4.47;;;14.20;95.50;;;;;;5006440;28;87219;-77
2023/07/26 04:40:53;;;;;;;11.70;5.30;;;14.20;95.40;;;;;;5005607;28;88547;-76
2023/07/26 04:43:19;;;;;;;14.93;5.00;;;14.20;95.50;;;;;;5006326;28;87963;-77
2023/07/26 04:45:52;;;;;;;13.15;5.15;;;14.20;95.40;;;;;;5006481;28;87780;-77
2023/07/26 04:48:19;;;;;;;10.05;5.70;;;14.20;95.50;;;;;;5004600;28;87263;-77
2023/07/26 04:50:46;;;;;;;9.30;4.50;;;14.20;95.60;;;;;;5006030;28;88831;-77
2023/07/26 04:53:12;;;;;;;9.93;4.97;;;14.30;95.50;;;;;;5005163;28;87758;-77
2023/07/26 04:55:48;;;;;;;11.25;4.65;;;14.30;95.60;;;;;;5007010;28;88461;-77
2023/07/26 04:58:14;;;;;;;9.30;4.78;;;14.30;95.60;;;;;;4987599;28;89167;-77
2023/07/26 05:00:41;;;;;;;16.83;5.20;;;14.30;95.60;;;;;;5003706;28;93038;-76
2023/07/26 05:03:08;;;;;;;11.70;4.57;;;14.40;95.70;;;;;;5007212;28;87885;-76
2023/07/26 05:05:34;;;;;;;12.07;4.93;;;14.40;95.70;;;;;;4988882;28;87651;-76
2023/07/26 05:08:00;;;;;;;9.55;4.75;;;14.50;95.80;;;;;;5005535;28;87685;-77
2023/07/26 05:10:25;;;;;;;13.48;5.53;;;14.50;95.70;;;;;;5006246;28;88513;-76
2023/07/26 05:12:52;;;;;;;11.50;5.30;;;14.50;95.90;;;;;;4988781;28;90808;-77
2023/07/26 05:15:18;;;;;;;14.70;5.32;;;14.60;95.80;;;;;;5006036;28;87718;-77
2023/07/26 05:17:46;;;;;;;15.63;5.47;;;14.60;95.90;;;;;;5003802;28;87536;-76
2023/07/26 05:20:12;;;;;;;14.07;5.30;;;14.70;95.90;;;;;;5004739;28;88734;-77
2023/07/26 05:22:38;;;;;;;10.90;5.20;;;14.70;96.00;;;;;;5005675;28;89999;-76
2023/07/26 05:25:05;;;;;;;13.02;5.15;;;14.70;95.90;;;;;;4987515;28;87694;-77
2023/07/26 05:27:30;;;;;;;13.88;4.93;;;14.80;95.90;;;;;;5005489;28;87856;-77
2023/07/26 05:29:57;;;;;;;13.57;6.05;;;14.80;95.80;;;;;;5005598;28;88675;-77
2023/07/26 05:32:23;;;;;;;11.43;5.70;;;14.90;95.80;;;;;;5005133;28;87556;-77
2023/07/26 05:34:51;;;;;;;12.38;5.60;;;14.90;95.60;;;;;;5005611;28;87753;-77
2023/07/26 05:37:17;;;;;;;12.73;5.80;;;15.00;95.60;;;;;;5005322;28;87093;-77
2023/07/26 05:39:42;;;;;;;15.48;6.53;;;15.00;95.50;;;;;;5006290;28;87989;-76
2023/07/26 05:42:08;;;;;;;13.77;6.40;;;15.00;95.40;;;;;;5005716;28;88329;-77
2023/07/26 05:44:34;;;;;;;16.35;6.50;;;15.10;95.40;;;;;;5003999;28;88493;-77
2023/07/26 05:46:59;;;;;;;15.18;6.95;;;15.10;95.50;;;;;;4986430;28;89252;-77
2023/07/26 05:49:25;;;;;;;12.07;5.55;;;15.10;95.30;;;;;;5005121;28;88565;-77
2023/07/26 05:51:50;;;;;;;11.20;5.60;;;15.10;95.20;;;;;;5005533;28;87445;-77
2023/07/26 05:54:16;;;;;;;13.27;6.18;;;15.20;95.20;;;;;;4989090;28;87471;-76
2023/07/26 05:56:42;;;;;;;14.05;5.45;;;15.20;95.30;;;;;;5001457;28;90745;-77
2023/07/26 05:59:07;;;;;;;15.43;5.72;;;15.20;95.20;;;;;;5002574;28;89257;-76
2023/07/26 06:01:33;;;;;;;16.17;6.15;;;15.10;95.40;;;;;;5005582;28;88333;-77
2023/07/26 06:03:58;;;;;;;13.10;5.93;;;15.10;95.30;;;;;;5003751;28;88089;-77
2023/07/26 06:06:24;;;;;;;12.88;6.00;;;15.20;95.30;;;;;;4995755;28;89321;-76
2023/07/26 06:08:50;;;;;;;19.15;5.95;;;15.20;95.40;;;;;;5005132;28;89134;-77
2023/07/26 06:11:16;;;;;;;15.48;5.82;;;15.20;95.40;;;;;;4986244;28;92383;-77
2023/07/26 06:13:42;;;;;;;13.05;5.85;;;15.20;95.50;;;;;;5007843;28;87526;-78
2023/07/26 06:16:08;;;;;;;13.55;5.32;;;15.20;95.50;;;;;;4989351;28;89446;-78
2023/07/26 06:18:33;;;;;;;17.13;6.72;;;15.30;95.60;;;;;;4986952;28;91492;-77
2023/07/26 06:20:59;;;;;;;12.48;6.13;;;15.40;95.50;;;;;;4990916;28;89810;-78
2023/07/26 06:23:25;;;;;;;14.27;5.93;;;15.40;95.40;;;;;;5006728;28;87380;-77
2023/07/26 06:25:50;;;;;;;19.85;6.63;;;15.50;95.40;;;;;;5010980;28;87081;-77
2023/07/26 06:28:16;;;;;;;12.77;5.53;;;15.60;95.40;;;;;;5009925;28;87716;-78
2023/07/26 06:30:42;;;;;;;10.93;5.75;;;15.70;95.20;;;;;;5010970;28;87812;-77
2023/07/26 06:33:07;;;;;;;13.20;4.72;;;15.70;95.00;;;;;;5006108;28;88594;-78
2023/07/26 06:35:33;;;;;;;12.55;5.85;;;15.80;95.10;;;;;;5024554;28;89468;-77
2023/07/26 06:37:58;;;;;;;15.25;5.75;;;15.90;94.70;;;;;;4988012;28;90374;-78
2023/07/26 06:40:24;;;;;;;11.65;5.57;;;15.90;94.70;;;;;;5000265;28;88395;-78
2023/07/26 06:42:50;;;;;;;19.45;5.88;;;16.00;94.50;;;;;;4999227;28;87522;-78
2023/07/26 06:45:15;;;;;;;13.27;5.93;;;16.00;94.30;;;;;;4986527;28;90581;-77
2023/07/26 06:47:41;;;;;;;16.85;5.85;;;16.00;94.30;;;;;;5005146;28;88366;-77
2023/07/26 06:50:07;;;;;;;10.25;5.55;;;16.00;94.40;;;;;;5002296;28;88391;-77
2023/07/26 06:52:32;;;;;;;17.52;6.15;;;16.10;94.40;;;;;;5003353;28;87428;-77
2023/07/26 06:54:58;;;;;;;15.65;5.45;;;16.10;93.90;;;;;;5004089;28;88180;-77
2023/07/26 06:57:24;;;;;;;13.60;5.15;;;16.10;94.20;;;;;;5003902;28;90196;-77
2023/07/26 06:59:49;;;;;;;11.45;5.35;;;16.20;94.10;;;;;;5001607;28;89337;-78
2023/07/26 07:02:15;;;;;;;13.75;5.57;;;16.20;94.20;;;;;;5000054;28;88185;-77
2023/07/26 07:04:41;;;;;;;16.83;6.07;;;16.20;93.80;;;;;;5016548;28;90566;-77
2023/07/26 07:07:06;;;;;;;12.13;5.03;;;16.40;94.10;;;;;;4984126;28;91394;-77
2023/07/26 07:09:32;;;;;;;14.55;5.63;;;16.40;94.20;;;;;;5001618;28;88299;-77
2023/07/26 07:11:58;;;;;;;13.73;6.10;;;16.50;93.90;;;;;;4985628;28;87086;-77
2023/07/26 07:14:23;;;;;;;14.77;5.45;;;16.60;94.10;;;;;;4982782;28;90639;-78
2023/07/26 07:16:49;;;;;;;13.40;5.45;;;16.70;93.40;;;;;;4984162;28;90431;-78
2023/07/26 07:19:15;;;;;;;8.70;4.85;;;16.90;93.20;;;;;;5001759;28;87911;-77
2023/07/26 07:21:41;;;;;;;11.95;5.18;;;17.00;92.70;;;;;;5002848;28;88811;-78
2023/07/26 07:24:07;;;;;;;14.68;5.88;;;17.00;92.50;;;;;;4986565;28;90260;-78
2023/07/26 07:26:32;;;;;;;11.50;5.22;;;17.10;92.50;;;;;;5001195;28;88798;-78
2023/07/26 07:28:58;;;;;;;9.82;4.85;;;17.20;92.50;;;;;;4986755;28;91134;-78
2023/07/26 07:31:23;;;;;;;13.52;5.97;;;17.30;92.40;;;;;;5005894;28;87860;-78
2023/07/26 07:33:49;;;;;;;12.73;4.60;;;17.40;91.90;;;;;;5007093;28;87739;-77
2023/07/26 07:36:18;;;;;;;11.68;5.07;;;17.50;92.40;;;;;;5007856;28;88878;-77
2023/07/26 07:38:47;;;;;;;7.80;4.85;;;17.70;92.20;;;;;;5005949;28;88371;-78
2023/07/26 07:41:13;;;;;;;18.40;5.68;;;17.80;91.40;;;;;;4989246;28;87681;-78
2023/07/26 07:43:39;;;;;;;11.43;4.60;;;17.90;91.20;;;;;;5007050;28;87530;-78
2023/07/26 07:46:05;;;;;;;12.60;4.63;;;18.10;91.10;;;;;;5005652;28;89706;-79
2023/07/26 07:48:31;;;;;;;9.05;4.72;;;18.20;90.50;;;;;;5004701;28;88915;-77
2023/07/26 07:50:57;;;;;;;9.63;4.32;;;18.20;89.50;;;;;;4988518;28;87565;-78
2023/07/26 07:53:23;;;;;;;10.80;4.38;;;18.20;88.70;;;;;;5007216;28;88460;-78
2023/07/26 07:55:50;;;;;;;7.82;4.93;;;18.30;89.20;;;;;;5004223;28;88124;-79
2023/07/26 07:58:16;;;;;;;9.23;4.93;;;18.30;88.10;;;;;;5007540;28;88639;-78
2023/07/26 08:00:42;;;;;;;12.90;4.97;;;18.40;88.10;;;;;;5005488;28;88018;-79
2023/07/26 08:03:09;;;;;;;13.15;4.82;;;18.40;88.50;;;;;;5009361;28;87211;-77
2023/07/26 08:05:35;;;;;;;12.10;5.05;;;18.50;89.80;;;;;;5006657;28;88894;-78
2023/07/26 08:08:01;;;;;;;9.43;4.60;;;18.60;89.40;;;;;;5006752;28;87784;-78
2023/07/26 08:10:27;;;;;;;10.68;4.97;;;18.70;88.20;;;;;;5003643;28;88408;-77
2023/07/26 08:12:53;;;;;;;11.18;4.93;;;18.70;86.60;;;;;;5005943;28;87786;-78
2023/07/26 08:15:18;;;;;;;15.80;4.80;;;18.70;86.10;;;;;;5007945;28;88127;-78
2023/07/26 08:17:44;;;;;;;15.82;4.97;;;18.80;87.60;;;;;;4988471;28;91209;-76
2023/07/26 08:20:11;;;;;;;7.68;3.95;;;19.00;87.80;;;;;;5004900;28;87552;-77
2023/07/26 08:22:37;;;;;;;10.45;4.68;;;19.00;86.60;;;;;;4988479;28;89221;-78
2023/07/26 08:25:03;;;;;;;9.27;4.35;;;19.20;86.70;;;;;;5004418;28;87820;-79
2023/07/26 08:27:29;;;;;;;6.25;3.40;;;19.30;85.90;;;;;;5007019;28;87798;-78
2023/07/26 08:29:55;;;;;;;6.82;3.45;;;19.50;84.40;;;;;;5006704;28;87513;-78
2023/07/26 08:32:21;;;;;;;11.25;4.22;;;19.60;83.50;;;;;;5005738;28;87833;-78
2023/07/26 08:34:46;;;;;;;8.00;3.88;;;19.70;81.00;;;;;;5006696;28;89263;-78
2023/07/26 08:37:12;;;;;;;10.48;4.03;;;19.80;81.50;;;;;;5006103;28;87431;-80
2023/07/26 08:39:37;;;;;;;11.90;4.10;;;19.90;80.00;;;;;;4988232;28;87757;-78
2023/07/26 08:42:04;;;;;;;8.10;4.00;;;20.00;79.80;;;;;;5005747;28;88056;-78
2023/07/26 08:44:31;;;;;;;8.10;3.10;;;20.00;79.30;;;;;;4988421;28;91156;-78
2023/07/26 08:46:58;;;;;;;10.40;4.07;;;20.10;80.40;;;;;;5020343;28;90920;-78
2023/07/26 08:49:23;;;;;;;9.27;3.55;;;20.10;77.90;;;;;;5006652;28;87544;-78
2023/07/26 08:51:50;;;;;;;9.68;4.00;;;20.20;78.70;;;;;;4988826;28;88699;-78
2023/07/26 08:54:15;;;;;;;5.85;3.47;;;20.10;78.10;;;;;;5007485;28;88770;-79
2023/07/26 08:56:41;;;;;;;7.80;3.42;;;20.10;78.10;;;;;;5004602;28;91396;-78
2023/07/26 08:59:07;;;;;;;5.20;3.17;;;20.20;79.10;;;;;;5006506;28;88900;-78
2023/07/26 09:01:33;;;;;;;6.40;3.42;;;20.30;79.00;;;;;;5004844;28;87898;-78
2023/07/26 09:03:59;;;;;;;6.18;3.17;;;20.30;78.20;;;;;;4987134;28;90988;-78
2023/07/26 09:06:24;;;;;;;8.65;3.85;;;20.50;79.30;;;;;;5006002;28;88779;-78
2023/07/26 09:08:51;;;;;;;7.57;3.45;;;20.50;76.90;;;;;;4986568;28;88177;-77
2023/07/26 09:11:25;;;;;;;8.55;3.42;;;20.60;79.80;;;;;;4985534;28;89416;-78
2023/07/26 09:13:59;;;;;;;9.77;3.35;;;20.80;77.00;;;;;;5005501;28;90085;-77
2023/07/26 09:16:28;;;;;;;;;;;20.70;74.40;;;;;;5005987;28;88351;-79
2023/07/26 09:19:02;;;;;;;8.20;3.38;;;20.70;74.20;;;;;;5004685;28;87534;-80
2023/07/26 09:21:30;;;;;;;5.50;2.97;;;20.80;73.70;;;;;;5004147;28;87478;-80
2023/07/26 09:23:57;;;;;;;15.05;3.25;;;20.80;73.00;;;;;;4990305;28;95320;-80
2023/07/26 09:26:39;;;;;;;7.82;3.42;;;20.80;73.80;;;;;;5001931;28;88933;-80
2023/07/26 09:29:13;;;;;;;7.88;2.67;;;20.80;73.90;;;;;;4999578;28;87464;-80
2023/07/26 09:31:42;;;;;;;6.88;3.15;;;20.80;73.20;;;;;;5017378;28;90742;-80
2023/07/26 09:34:11;;;;;;;6.95;2.83;;;20.70;73.40;;;;;;5016704;27;90134;-80
2023/07/26 09:36:40;;;;;;;8.68;3.08;;;20.80;73.90;;;;;;5005206;27;87694;-80
2023/07/26 09:39:06;;;;;;;6.68;2.90;;;20.90;75.40;;;;;;4988085;28;87311;-80
2023/07/26 09:41:31;;;;;;;5.30;2.78;;;21.10;74.80;;;;;;4986950;28;90549;-80
2023/07/26 09:43:59;;;;;;;4.80;2.85;;;21.10;72.50;;;;;;5002987;27;87700;-80
2023/07/26 09:46:25;;;;;;;4.55;2.47;;;21.00;72.30;;;;;;4986533;28;90579;-80
2023/07/26 09:49:02;;;;;;;5.95;2.60;;;21.00;69.80;;;;;;4985398;28;88643;-80
2023/07/26 09:51:30;;;;;;;6.35;2.70;;;21.00;69.80;;;;;;5005019;28;88110;-79
2023/07/26 09:53:59;;;;;;;7.05;2.65;;;21.10;70.60;;;;;;5003622;28;95479;-80
2023/07/26 09:56:32;;;;;;;5.30;2.92;;;21.20;69.40;;;;;;5000045;28;90783;-80
2023/07/26 09:58:59;;;;;;;6.85;2.78;;;21.20;69.80;;;;;;5017748;28;88158;-80
2023/07/26 10:01:27;;;;;;;4.95;2.55;;;21.00;70.10;;;;;;4986820;28;88296;-80
2023/07/26 10:03:55;;;;;;;5.68;2.63;;;20.90;68.80;;;;;;4985466;28;91710;-80
2023/07/26 10:06:23;;;;;;;5.90;2.75;;;20.90;69.90;;;;;;5004772;28;88328;-80
2023/07/26 10:08:49;;;;;;;2.92;1.77;;;20.90;70.90;;;;;;5003524;28;87763;-80
2023/07/26 10:11:15;;;;;;;4.00;2.40;;;20.90;71.80;;;;;;4986052;28;88081;-79
2023/07/26 10:13:43;;;;;;;2.95;1.92;;;21.00;72.10;;;;;;5005472;28;89086;-79
2023/07/26 10:16:09;;;;;;;5.35;2.30;;;20.90;70.30;;;;;;5002550;27;89177;-78
2023/07/26 10:18:35;;;;;;;7.60;2.50;;;20.90;71.70;;;;;;5005466;28;87512;-78
2023/07/26 10:21:01;;;;;;;5.55;2.15;;;21.00;71.10;;;;;;5004537;28;87799;-77
2023/07/26 10:23:30;;;;;;;4.72;1.92;;;21.10;69.40;;;;;;5002542;28;87388;-79
2023/07/26 10:26:00;;;;;;;6.45;2.22;;;21.30;69.80;;;;;;4994993;28;87715;-78
2023/07/26 10:28:26;;;;;;;3.25;1.88;;;21.50;66.70;;;;;;5003454;28;87754;-77
2023/07/26 10:30:53;;;;;;;4.28;2.05;;;21.60;65.70;;;;;;5006555;27;87014;-78
2023/07/26 10:33:18;;;;;;;5.00;2.28;;;21.80;64.30;;;;;;5003618;28;88288;-78
2023/07/26 10:35:46;;;;;;;6.10;2.55;;;22.00;63.00;;;;;;5003636;28;88860;-78
2023/07/26 10:38:14;;;;;;;4.10;2.20;;;22.10;62.10;;;;;;4987399;28;88809;-77
2023/07/26 10:40:40;;;;;;;4.13;2.38;;;22.20;61.30;;;;;;5003607;27;88035;-77
2023/07/26 10:43:21;;;;;;;5.47;2.35;;;22.30;60.90;;;;;;5004490;27;89034;-77
2023/07/26 10:45:49;;;;;;;5.28;2.13;;;22.30;60.60;;;;;;4997934;28;91132;-78
2023/07/26 10:48:36;;;;;;;2.38;1.60;;;22.40;60.20;;;;;;5004225;28;88075;-78
2023/07/26 10:51:21;;;;;;;5.93;1.98;;;22.40;56.70;;;;;;5004777;28;91724;-77
2023/07/26 10:53:47;;;;;;;3.92;2.40;;;22.60;58.10;;;;;;4993238;28;90577;-77
2023/07/26 10:56:31;;;;;;;2.83;2.10;;;22.60;57.80;;;;;;5005401;28;88421;-77
2023/07/26 10:59:02;;;;;;;4.00;2.13;;;22.60;57.40;;;;;;4985719;28;87563;-78
2023/07/26 11:01:44;;;;;;;6.13;1.95;;;22.60;58.20;;;;;;5000770;28;88566;-78
2023/07/26 11:04:14;;;;;;;4.13;2.55;;;22.60;58.70;;;;;;5016854;28;92631;-78
2023/07/26 11:07:04;;;;;;;3.33;1.90;;;22.60;56.60;;;;;;5008010;28;88579;-78
2023/07/26 11:09:36;;;;;;;5.63;2.53;;;22.60;58.40;;;;;;5007121;28;87559;-79
2023/07/26 11:12:03;;;;;;;3.25;1.95;;;22.70;58.10;;;;;;5008515;28;92089;-78
2023/07/26 11:14:31;;;;;;;4.13;2.28;;;22.80;58.80;;;;;;5006574;28;91071;-80
2023/07/26 11:17:02;;;;;;;3.15;1.73;;;22.90;57.00;;;;;;5022790;28;89099;-78
2023/07/26 11:19:29;;;;;;;3.17;1.70;;;23.10;54.70;;;;;;5005362;28;87457;-78
2023/07/26 11:22:05;;;;;;;5.18;2.25;;;23.20;54.60;;;;;;4987425;28;90548;-77
2023/07/26 11:24:30;;;;;;;5.70;2.42;;;23.20;55.10;;;;;;5009195;27;88542;-78
2023/07/26 11:27:03;;;;;;;4.10;1.80;;;23.30;53.90;;;;;;4989290;28;90121;-78
2023/07/26 11:29:29;;;;;;;4.75;2.13;;;23.50;56.40;;;;;;5005847;28;88718;-78
2023/07/26 11:31:55;;;;;;;3.92;2.05;;;23.70;53.70;;;;;;5006842;28;87783;-78
2023/07/26 11:34:20;;;;;;;3.20;2.00;;;23.80;52.00;;;;;;5007046;27;87851;-79
2023/07/26 11:36:46;;;;;;;6.88;2.25;;;23.90;51.80;;;;;;5008546;28;88024;-78
2023/07/26 11:39:22;;;;;;;5.95;2.25;;;23.80;51.50;;;;;;4992098;28;87760;-78
2023/07/26 11:41:58;;;;;;;3.10;1.98;;;23.80;52.60;;;;;;4996291;28;88556;-80
2023/07/26 11:44:23;;;;;;;4.88;2.40;;;23.80;51.60;;;;;;5010903;28;88521;-77
2023/07/26 11:46:56;;;;;;;4.88;2.38;;;23.80;52.00;;;;;;4991783;28;89995;-77
2023/07/26 11:49:32;;;;;;;3.90;2.17;;;24.00;52.80;;;;;;4978780;28;87717;-77
2023/07/26 11:51:58;;;;;;;3.03;2.05;;;23.90;51.20;;;;;;5000277;28;87996;-78
2023/07/26 11:54:24;;;;;;;4.70;2.30;;;23.70;52.30;;;;;;5001008;28;89935;-78
2023/07/26 11:56:50;;;;;;;8.30;2.78;;;23.60;53.70;;;;;;5007005;28;88875;-79
2023/07/26 11:59:17;;;;;;;3.65;2.42;;;23.50;54.10;;;;;;4987326;28;87849;-78
2023/07/26 12:01:42;;;;;;;4.97;2.38;;;23.50;55.10;;;;;;5005981;27;87770;-78
2023/07/26 12:04:16;;;;;;;3.22;2.17;;;23.50;53.70;;;;;;5007828;28;87445;-77
2023/07/26 12:06:44;;;;;;;8.15;2.65;;;23.40;54.30;;;;;;5005415;27;87503;-77
2023/07/26 12:09:11;;;;;;;6.35;2.63;;;23.30;54.20;;;;;;5008830;28;88252;-77
2023/07/26 12:11:47;;;;;;;5.88;2.42;;;23.10;52.90;;;;;;5008661;28;87351;-78
2023/07/26 12:14:16;;;;;;;2.72;2.00;;;22.90;54.20;;;;;;5003888;28;87830;-76
2023/07/26 12:16:48;;;;;;;3.88;2.22;;;22.70;55.80;;;;;;5004630;27;88661;-77
2023/07/26 12:19:13;;;;;;;3.95;2.20;;;22.60;58.60;;;;;;5000979;28;88819;-77
2023/07/26 12:21:39;;;;;;;4.72;2.65;;;22.70;58.10;;;;;;5007560;28;87410;-77
2023/07/26 12:24:06;;;;;;;3.75;2.60;;;22.80;56.10;;;;;;4988482;28;90964;-78
2023/07/26 12:26:37;;;;;;;3.45;2.53;;;22.80;57.40;;;;;;5005011;27;88787;-77
2023/07/26 12:29:05;;;;;;;4.35;2.75;;;23.00;57.30;;;;;;5005821;28;87117;-77
2023/07/26 12:31:34;;;;;;;4.45;2.40;;;23.10;55.00;;;;;;5007509;28;88260;-78
2023/07/26 12:34:02;;;;;;;4.38;2.70;;;23.30;56.70;;;;;;5002522;28;88591;-78
2023/07/26 12:36:48;;;;;;;4.90;2.55;;;23.40;52.90;;;;;;5006635;28;88043;-78
2023/07/26 12:39:19;;;;;;;4.93;2.45;;;23.50;53.80;;;;;;5007637;28;87401;-77
2023/07/26 12:41:45;;;;;;;3.53;2.35;;;23.60;53.60;;;;;;5008599;27;87562;-77